Time;durP1;ratioP1;P1;durP2;ratioP2;P2;SDS_P1;SDS_P2;PMS_P1;PMS_P2;Temp;Humidity;BMP_temperature;BMP_pressure;BME280_temperature;BME280_humidity;BME280_pressure;Samples;Min_cycle;Max_cycle;Signal;HPM_P1;HPM_P2
2022/09/21 00:02:12;;;;;;;4.25;2.35;;;;;;;;;;5022449;28;20088;-83
2022/09/21 00:04:38;;;;;;;3.90;2.17;;;;;;;;;;5031549;28;20123;-82
2022/09/21 00:07:04;;;;;;;3.30;2.00;;;;;;;;;;5031565;28;20038;-83
2022/09/21 00:09:30;;;;;;;4.63;2.25;;;;;;;;;;5024786;28;20073;-82
2022/09/21 00:11:56;;;;;;;3.13;2.25;;;;;;;;;;5029137;28;20111;-81
2022/09/21 00:14:22;;;;;;;2.78;2.25;;;;;;;;;;5028552;28;20045;-83
2022/09/21 00:16:48;;;;;;;2.60;2.05;;;;;;;;;;5028887;28;20091;-82
2022/09/21 00:19:15;;;;;;;3.22;2.22;;;;;;;;;;5035720;28;20133;-83
2022/09/21 00:21:41;;;;;;;3.75;2.45;;;;;;;;;;5025903;28;20539;-83
2022/09/21 00:24:08;;;;;;;4.20;2.40;;;;;;;;;;5030708;28;20049;-83
2022/09/21 00:26:34;;;;;;;3.25;2.15;;;;;;;;;;5030159;28;20084;-82
2022/09/21 00:29:01;;;;;;;3.35;2.17;;;;;;;;;;5030450;28;20477;-82
2022/09/21 00:31:27;;;;;;;3.55;2.17;;;;;;;;;;5031089;28;20041;-82
2022/09/21 00:33:54;;;;;;;5.30;2.50;;;;;;;;;;5025772;28;20497;-82
2022/09/21 00:36:21;;;;;;;2.55;2.10;;;;;;;;;;5027808;28;20050;-82
2022/09/21 00:38:52;;;;;;;5.88;2.20;;;;;;;;;;5032751;28;20053;-83
2022/09/21 00:41:18;;;;;;;2.60;2.20;;;;;;;;;;5033475;28;20057;-82
2022/09/21 00:43:46;;;;;;;3.22;2.30;;;;;;;;;;5026651;28;20405;-82
2022/09/21 00:46:22;;;;;;;4.30;2.22;;;;;;;;;;5031803;28;20166;-83
2022/09/21 00:48:49;;;;;;;2.97;2.40;;;;;;;;;;5018359;28;20123;-83
2022/09/21 00:51:15;;;;;;;6.85;2.53;;;;;;;;;;5024545;28;20081;-83
2022/09/21 00:53:41;;;;;;;3.95;2.22;;;;;;;;;;5030780;28;20555;-83
2022/09/21 00:56:17;;;;;;;3.85;2.10;;;;;;;;;;5032972;28;20057;-82
2022/09/21 00:58:44;;;;;;;4.68;2.17;;;;;;;;;;5029928;28;20392;-83
2022/09/21 01:01:11;;;;;;;3.50;2.10;;;;;;;;;;5032091;28;20053;-82
2022/09/21 01:03:38;;;;;;;2.70;2.00;;;;;;;;;;5029546;28;20760;-83
2022/09/21 01:06:05;;;;;;;6.15;2.28;;;;;;;;;;5028548;28;20056;-83
2022/09/21 01:08:33;;;;;;;3.63;2.50;;;;;;;;;;5024223;28;20131;-83
2022/09/21 01:11:08;;;;;;;5.30;2.30;;;;;;;;;;5030267;28;20049;-82
2022/09/21 01:13:40;;;;;;;4.78;2.20;;;;;;;;;;5030672;28;20053;-82
2022/09/21 01:16:18;;;;;;;2.63;2.30;;;;;;;;;;5025931;28;20055;-83
2022/09/21 01:18:53;;;;;;;5.70;2.40;;;;;;;;;;5032015;28;20395;-82
2022/09/21 01:21:19;;;;;;;3.22;2.13;;;;;;;;;;5027570;28;20041;-82
2022/09/21 01:24:03;;;;;;;3.03;1.90;;;;;;;;;;5029088;28;20493;-82
2022/09/21 01:26:42;;;;;;;3.30;2.05;;;;;;;;;;5017909;28;20077;-82
2022/09/21 01:29:15;;;;;;;4.43;2.20;;;;;;;;;;5026746;28;20041;-82
2022/09/21 01:31:46;;;;;;;3.53;2.10;;;;;;;;;;5016582;28;20104;-81
2022/09/21 01:34:16;;;;;;;4.32;2.30;;;;;;;;;;5026085;28;20068;-82
2022/09/21 01:36:44;;;;;;;4.28;2.20;;;;;;;;;;5031635;28;20474;-82
2022/09/21 01:39:13;;;;;;;3.65;2.30;;;;;;;;;;5024224;28;20087;-83
2022/09/21 01:41:40;;;;;;;5.15;2.38;;;;;;;;;;5028003;28;20095;-82
2022/09/21 01:44:09;;;;;;;2.83;2.40;;;;;;;;;;5027980;28;20037;-81
2022/09/21 01:46:36;;;;;;;5.15;2.47;;;;;;;;;;5029373;28;20064;-82
2022/09/21 01:49:07;;;;;;;5.18;2.58;;;;;;;;;;5027966;28;20048;-81
2022/09/21 01:51:34;;;;;;;4.10;2.45;;;;;;;;;;5028587;28;20045;-82
2022/09/21 01:54:07;;;;;;;4.70;2.50;;;;;;;;;;5029081;28;20087;-83
2022/09/21 01:56:38;;;;;;;5.13;2.50;;;;;;;;;;5027894;28;20378;-82
2022/09/21 01:59:16;;;;;;;5.82;2.10;;;;;;;;;;5028864;28;20091;-82
2022/09/21 02:01:58;;;;;;;4.30;2.45;;;;;;;;;;5017101;28;20393;-82
2022/09/21 02:04:24;;;;;;;4.47;2.63;;;;;;;;;;5029302;28;20037;-82
2022/09/21 02:06:50;;;;;;;2.55;2.22;;;;;;;;;;5031270;28;20463;-82
2022/09/21 02:09:17;;;;;;;5.47;2.63;;;;;;;;;;5030056;28;20089;-82
2022/09/21 02:11:44;;;;;;;3.95;2.40;;;;;;;;;;5017326;28;20512;-81
2022/09/21 02:14:12;;;;;;;2.70;2.30;;;;;;;;;;5029640;28;20057;-82
2022/09/21 02:16:56;;;;;;;3.85;2.45;;;;;;;;;;5030788;28;20136;-82
2022/09/21 02:19:33;;;;;;;4.15;2.60;;;;;;;;;;5029451;28;20608;-82
2022/09/21 02:22:05;;;;;;;6.97;2.55;;;;;;;;;;5028411;28;20478;-82
2022/09/21 02:24:46;;;;;;;7.10;2.50;;;;;;;;;;5022674;28;20088;-82
2022/09/21 02:27:12;;;;;;;4.15;2.30;;;;;;;;;;5029966;28;20432;-82
2022/09/21 02:29:47;;;;;;;3.05;2.10;;;;;;;;;;5029823;28;20124;-82
2022/09/21 02:32:32;;;;;;;4.75;2.30;;;;;;;;;;5024392;28;20041;-82
2022/09/21 02:35:02;;;;;;;3.70;2.17;;;;;;;;;;5028117;28;20115;-82
2022/09/21 02:37:34;;;;;;;4.28;2.53;;;;;;;;;;5026938;28;20073;-82
2022/09/21 02:40:03;;;;;;;4.50;2.30;;;;;;;;;;5028725;28;20064;-82
2022/09/21 02:42:34;;;;;;;4.50;2.10;;;;;;;;;;5024093;28;20045;-82
2022/09/21 02:45:07;;;;;;;4.30;2.70;;;;;;;;;;5032040;28;20053;-82
2022/09/21 02:47:38;;;;;;;4.68;2.78;;;;;;;;;;5030525;28;20046;-82
2022/09/21 02:50:07;;;;;;;4.95;2.50;;;;;;;;;;5029319;28;20051;-83
2022/09/21 02:52:34;;;;;;;5.60;2.80;;;;;;;;;;5031545;28;20393;-83
2022/09/21 02:55:01;;;;;;;4.05;2.50;;;;;;;;;;5020925;28;20521;-82
2022/09/21 02:57:27;;;;;;;2.58;2.20;;;;;;;;;;5010931;28;20053;-82
2022/09/21 02:59:53;;;;;;;4.20;2.60;;;;;;;;;;5026921;28;20080;-82
2022/09/21 03:02:19;;;;;;;4.57;2.60;;;;;;;;;;5023614;28;20061;-82
2022/09/21 03:04:47;;;;;;;6.25;2.78;;;;;;;;;;5019872;28;20057;-82
2022/09/21 03:07:14;;;;;;;4.35;2.67;;;;;;;;;;5030874;28;20041;-83
2022/09/21 03:09:40;;;;;;;3.60;2.45;;;;;;;;;;5023687;28;20148;-82
2022/09/21 03:12:06;;;;;;;3.50;2.60;;;;;;;;;;5031406;28;20049;-81
2022/09/21 03:14:33;;;;;;;3.60;2.40;;;;;;;;;;5030074;28;20049;-81
2022/09/21 03:16:59;;;;;;;5.47;2.67;;;;;;;;;;5025179;28;20486;-82
2022/09/21 03:19:25;;;;;;;5.88;2.55;;;;;;;;;;5024756;28;20401;-82
2022/09/21 03:21:53;;;;;;;6.47;2.75;;;;;;;;;;5025158;28;20056;-82
2022/09/21 03:24:44;;;;;;;3.17;2.25;;;;;;;;;;5024560;28;20038;-82
2022/09/21 03:27:05;;;;;;;3.58;2.47;;;;;;;;;;5028780;28;20042;-82
2022/09/21 03:29:31;;;;;;;6.53;2.78;;;;;;;;;;5028244;28;20037;-82
2022/09/21 03:31:58;;;;;;;7.05;3.10;;;;;;;;;;5030133;28;20041;-82
2022/09/21 03:34:25;;;;;;;5.97;2.60;;;;;;;;;;5028982;28;20041;-82
2022/09/21 03:36:51;;;;;;;3.08;2.33;;;;;;;;;;5030787;28;20502;-82
2022/09/21 03:39:17;;;;;;;3.30;2.50;;;;;;;;;;5011513;28;20505;-82
2022/09/21 03:41:44;;;;;;;4.78;2.50;;;;;;;;;;5027609;28;20041;-82
2022/09/21 03:44:10;;;;;;;2.88;2.30;;;;;;;;;;5027347;28;20146;-82
2022/09/21 03:46:36;;;;;;;5.88;2.50;;;;;;;;;;5027943;28;20493;-82
2022/09/21 03:49:02;;;;;;;4.82;2.40;;;;;;;;;;5026915;28;20049;-82
2022/09/21 03:51:30;;;;;;;4.93;2.80;;;;;;;;;;5012141;28;20048;-82
2022/09/21 03:53:56;;;;;;;4.32;2.75;;;;;;;;;;5013617;28;20046;-83
2022/09/21 03:56:22;;;;;;;4.95;2.42;;;;;;;;;;5030767;28;20405;-82
2022/09/21 03:58:48;;;;;;;4.15;2.45;;;;;;;;;;5016962;28;20050;-82
2022/09/21 04:01:14;;;;;;;3.92;2.33;;;;;;;;;;5023863;28;20046;-82
2022/09/21 04:03:40;;;;;;;4.82;2.33;;;;;;;;;;5029349;28;20111;-82
2022/09/21 04:06:10;;;;;;;4.40;2.22;;;;;;;;;;5028416;28;20466;-83
2022/09/21 04:08:36;;;;;;;5.85;2.65;;;;;;;;;;5022640;28;20060;-83
2022/09/21 04:11:09;;;;;;;5.07;2.38;;;;;;;;;;5029598;28;20053;-82
2022/09/21 04:13:35;;;;;;;4.50;2.40;;;;;;;;;;5030771;28;20045;-82
2022/09/21 04:16:01;;;;;;;3.35;2.28;;;;;;;;;;5028401;28;20128;-82
2022/09/21 04:18:27;;;;;;;2.40;2.13;;;;;;;;;;5019311;28;20125;-82
2022/09/21 04:20:53;;;;;;;4.45;2.40;;;;;;;;;;5028254;28;20081;-82
2022/09/21 04:23:19;;;;;;;5.28;2.53;;;;;;;;;;5027995;28;20084;-82
2022/09/21 04:25:47;;;;;;;6.32;2.65;;;;;;;;;;5023942;28;20045;-82
2022/09/21 04:28:13;;;;;;;5.60;2.85;;;;;;;;;;5030499;28;20041;-82
2022/09/21 04:30:39;;;;;;;3.63;2.65;;;;;;;;;;5027078;28;20052;-82
2022/09/21 04:33:05;;;;;;;5.72;2.40;;;;;;;;;;5027599;28;20053;-82
2022/09/21 04:35:31;;;;;;;3.67;2.30;;;;;;;;;;5025469;28;20046;-82
2022/09/21 04:37:57;;;;;;;3.50;2.70;;;;;;;;;;5012313;28;20052;-82
2022/09/21 04:40:23;;;;;;;3.63;2.38;;;;;;;;;;5024482;28;20059;-82
2022/09/21 04:42:53;;;;;;;5.57;3.20;;;;;;;;;;5030828;28;20037;-81
2022/09/21 04:45:22;;;;;;;3.67;2.90;;;;;;;;;;5031291;28;20080;-82
2022/09/21 04:47:48;;;;;;;5.45;3.33;;;;;;;;;;5031652;28;20049;-82
2022/09/21 04:50:15;;;;;;;5.90;3.22;;;;;;;;;;5031878;28;20045;-82
2022/09/21 04:52:41;;;;;;;5.70;2.80;;;;;;;;;;5028201;28;20045;-82
2022/09/21 04:55:08;;;;;;;2.90;2.70;;;;;;;;;;5031311;28;20049;-84
2022/09/21 04:57:34;;;;;;;4.53;2.65;;;;;;;;;;5034089;28;20053;-83
2022/09/21 05:00:01;;;;;;;4.07;2.78;;;;;;;;;;5021075;28;20037;-83
2022/09/21 05:02:27;;;;;;;5.22;2.58;;;;;;;;;;5029573;28;20045;-83
2022/09/21 05:04:53;;;;;;;2.83;2.53;;;;;;;;;;5031630;28;20037;-83
2022/09/21 05:07:19;;;;;;;3.92;2.75;;;;;;;;;;5029613;28;20050;-84
2022/09/21 05:10:03;;;;;;;4.20;2.85;;;;;;;;;;5024024;28;20485;-83
2022/09/21 05:12:35;;;;;;;4.78;2.67;;;;;;;;;;5020092;28;20104;-83
2022/09/21 05:15:01;;;;;;;7.10;2.90;;;;;;;;;;5024897;28;20196;-83
2022/09/21 05:17:27;;;;;;;7.00;3.85;;;;;;;;;;5028747;28;20104;-83
2022/09/21 05:19:54;;;;;;;9.02;4.97;;;;;;;;;;5033025;28;20405;-84
2022/09/21 05:22:20;;;;;;;14.15;5.40;;;;;;;;;;5031960;28;20045;-83
2022/09/21 05:24:46;;;;;;;8.25;4.45;;;;;;;;;;5023394;28;20136;-84
2022/09/21 05:27:13;;;;;;;8.48;3.80;;;;;;;;;;5022833;28;20045;-84
2022/09/21 05:29:39;;;;;;;10.00;3.80;;;;;;;;;;5032293;28;20041;-84
2022/09/21 05:32:08;;;;;;;6.95;3.33;;;;;;;;;;5028620;28;20041;-85
2022/09/21 05:34:34;;;;;;;4.85;3.17;;;;;;;;;;5028159;28;20042;-84
2022/09/21 05:37:11;;;;;;;10.13;3.40;;;;;;;;;;5029099;28;20041;-83
2022/09/21 05:39:37;;;;;;;9.05;4.25;;;;;;;;;;5029772;28;20038;-84
2022/09/21 05:42:04;;;;;;;9.15;4.13;;;;;;;;;;5031014;28;20401;-82
2022/09/21 05:44:30;;;;;;;7.28;3.80;;;;;;;;;;5026567;28;20038;-83
2022/09/21 05:46:56;;;;;;;9.38;3.97;;;;;;;;;;5028185;28;20473;-84
2022/09/21 05:49:25;;;;;;;7.63;3.38;;;;;;;;;;5025418;28;20064;-84
2022/09/21 05:52:02;;;;;;;5.95;3.38;;;;;;;;;;5026870;28;20053;-84
2022/09/21 05:54:37;;;;;;;9.13;3.63;;;;;;;;;;5021090;28;20437;-84
2022/09/21 05:57:17;;;;;;;6.93;3.35;;;;;;;;;;5030787;28;20081;-83
2022/09/21 05:59:44;;;;;;;7.47;3.40;;;;;;;;;;5031685;28;20049;-82
2022/09/21 06:02:28;;;;;;;9.82;4.10;;;;;;;;;;5030424;28;20552;-82
2022/09/21 06:04:56;;;;;;;4.40;2.92;;;;;;;;;;5030949;28;20132;-82
2022/09/21 06:07:22;;;;;;;7.15;3.50;;;;;;;;;;5028861;28;20111;-83
2022/09/21 06:09:48;;;;;;;5.25;3.00;;;;;;;;;;5026916;28;20081;-83
2022/09/21 06:12:14;;;;;;;4.18;2.90;;;;;;;;;;5032696;28;20481;-82
2022/09/21 06:14:40;;;;;;;4.72;2.83;;;;;;;;;;5030312;28;20046;-82
2022/09/21 06:17:06;;;;;;;3.78;3.15;;;;;;;;;;5030252;28;20555;-82
2022/09/21 06:19:32;;;;;;;4.43;3.00;;;;;;;;;;5029150;28;20479;-82
2022/09/21 06:21:58;;;;;;;6.50;2.70;;;;;;;;;;5024677;28;20042;-83
2022/09/21 06:24:24;;;;;;;6.45;3.30;;;;;;;;;;5023331;28;20464;-82
2022/09/21 06:26:50;;;;;;;8.35;3.28;;;;;;;;;;5019478;28;20136;-82
2022/09/21 06:29:22;;;;;;;6.80;3.40;;;;;;;;;;5031730;28;20493;-82
2022/09/21 06:31:48;;;;;;;6.03;3.35;;;;;;;;;;5032969;28;20060;-82
2022/09/21 06:34:14;;;;;;;5.97;3.00;;;;;;;;;;5024754;28;20442;-82
2022/09/21 06:36:40;;;;;;;6.60;2.85;;;;;;;;;;5032499;28;20116;-82
2022/09/21 06:39:06;;;;;;;4.80;2.60;;;;;;;;;;5029860;28;20033;-84
2022/09/21 06:41:32;;;;;;;4.72;2.85;;;;;;;;;;5026325;28;20041;-83
2022/09/21 06:43:58;;;;;;;6.65;2.78;;;;;;;;;;5018918;28;20042;-83
2022/09/21 06:46:24;;;;;;;2.97;2.45;;;;;;;;;;5022356;28;20089;-82
2022/09/21 06:48:50;;;;;;;7.30;2.70;;;;;;;;;;5028298;28;20473;-83
2022/09/21 06:51:16;;;;;;;5.78;2.63;;;;;;;;;;5024314;28;20214;-83
2022/09/21 06:53:42;;;;;;;3.85;2.58;;;;;;;;;;5024342;28;20048;-84
2022/09/21 06:56:09;;;;;;;3.35;2.30;;;;;;;;;;5021388;28;20128;-85
2022/09/21 06:58:36;;;;;;;7.72;2.40;;;;;;;;;;5031018;28;20037;-81
2022/09/21 07:01:06;;;;;;;3.22;2.20;;;;;;;;;;5026757;28;20048;-80
2022/09/21 07:03:33;;;;;;;7.45;2.70;;;;;;;;;;5026984;28;20067;-80
2022/09/21 07:05:59;;;;;;;3.65;2.30;;;;;;;;;;5022593;28;20133;-83
2022/09/21 07:08:25;;;;;;;4.93;2.20;;;;;;;;;;5028344;28;20049;-84
2022/09/21 07:10:52;;;;;;;4.18;2.17;;;;;;;;;;5024671;28;20057;-84
2022/09/21 07:13:21;;;;;;;2.70;2.00;;;;;;;;;;5028694;28;20141;-82
2022/09/21 07:15:47;;;;;;;3.40;2.20;;;;;;;;;;5016980;28;20551;-82
2022/09/21 07:18:14;;;;;;;3.53;2.30;;;;;;;;;;5029046;28;20046;-84
2022/09/21 07:20:40;;;;;;;6.00;2.58;;;;;;;;;;5029345;28;20045;-84
2022/09/21 07:23:10;;;;;;;2.92;1.95;;;;;;;;;;5014411;28;20253;-83
2022/09/21 07:25:36;;;;;;;3.08;1.80;;;;;;;;;;5005924;28;20083;-86
2022/09/21 07:28:02;;;;;;;3.58;1.95;;;;;;;;;;5019456;28;20084;-85
2022/09/21 07:30:28;;;;;;;5.65;2.10;;;;;;;;;;5031374;28;20048;-83
2022/09/21 07:32:54;;;;;;;6.07;2.05;;;;;;;;;;5026766;28;20041;-84
2022/09/21 07:35:20;;;;;;;2.95;1.90;;;;;;;;;;5028073;28;20072;-83
2022/09/21 07:37:46;;;;;;;3.25;1.70;;;;;;;;;;5028533;28;20046;-82
2022/09/21 07:40:12;;;;;;;5.00;1.70;;;;;;;;;;5029683;28;20180;-82
2022/09/21 07:42:38;;;;;;;3.17;1.50;;;;;;;;;;5027765;28;20492;-82
2022/09/21 07:45:04;;;;;;;2.72;1.50;;;;;;;;;;5028692;28;20590;-83
2022/09/21 07:47:30;;;;;;;5.32;1.70;;;;;;;;;;5026530;28;20409;-82
2022/09/21 07:49:56;;;;;;;6.40;1.60;;;;;;;;;;5023545;28;20108;-83
2022/09/21 07:52:22;;;;;;;4.30;1.60;;;;;;;;;;5025794;28;20053;-83
2022/09/21 07:54:48;;;;;;;6.97;1.80;;;;;;;;;;5028328;28;20058;-84
2022/09/21 07:59:59;;;;;;;4.45;1.50;;;;;;;;;;5025898;28;20053;-84
2022/09/21 08:02:25;;;;;;;4.07;1.60;;;;;;;;;;5029773;28;20080;-85
2022/09/21 08:04:52;;;;;;;3.55;1.60;;;;;;;;;;5017176;28;20188;-85
2022/09/21 08:07:18;;;;;;;4.38;1.50;;;;;;;;;;5028358;28;20091;-85
2022/09/21 08:09:48;;;;;;;4.88;1.80;;;;;;;;;;5028001;28;20061;-85
2022/09/21 08:12:17;;;;;;;2.35;1.27;;;;;;;;;;5021495;28;20057;-84
2022/09/21 08:14:43;;;;;;;2.17;1.30;;;;;;;;;;5021723;28;20056;-84
2022/09/21 08:17:09;;;;;;;5.60;1.83;;;;;;;;;;5022790;28;20077;-84
2022/09/21 08:19:35;;;;;;;4.07;1.50;;;;;;;;;;5031156;28;20045;-84
2022/09/21 08:22:01;;;;;;;4.10;1.50;;;;;;;;;;5022717;28;20052;-84
2022/09/21 08:24:27;;;;;;;4.15;1.70;;;;;;;;;;5031220;28;20049;-83
2022/09/21 08:26:54;;;;;;;9.98;2.40;;;;;;;;;;5031631;28;20044;-84
2022/09/21 08:29:20;;;;;;;4.88;1.80;;;;;;;;;;5030660;28;20052;-84
2022/09/21 08:31:46;;;;;;;2.45;1.40;;;;;;;;;;5030976;28;20063;-84
2022/09/21 08:34:13;;;;;;;4.05;1.60;;;;;;;;;;5024306;28;20136;-84
2022/09/21 08:36:39;;;;;;;5.00;2.03;;;;;;;;;;5028308;28;20493;-85
2022/09/21 08:39:08;;;;;;;7.03;1.83;;;;;;;;;;5018272;28;20034;-84
2022/09/21 08:41:53;;;;;;;4.25;1.67;;;;;;;;;;5014832;28;20050;-85
2022/09/21 08:44:25;;;;;;;3.25;1.33;;;;;;;;;;5025897;28;20053;-84
2022/09/21 08:47:05;;;;;;;2.65;1.30;;;;;;;;;;5030640;28;20041;-84
2022/09/21 08:49:33;;;;;;;4.13;1.63;;;;;;;;;;5025542;28;20140;-84
2022/09/21 08:52:02;;;;;;;4.35;1.55;;;;;;;;;;5021870;28;20451;-84
2022/09/21 08:54:47;;;;;;;3.60;1.30;;;;;;;;;;5019641;28;20042;-84
2022/09/21 08:57:13;;;;;;;5.85;1.77;;;;;;;;;;5025705;28;20370;-83
2022/09/21 08:59:44;;;;;;;3.95;1.50;;;;;;;;;;5036754;28;20428;-84
2022/09/21 09:02:27;;;;;;;2.35;1.50;;;;;;;;;;5027982;28;20042;-84
2022/09/21 09:05:02;;;;;;;5.82;1.50;;;;;;;;;;5026652;28;20497;-85
2022/09/21 09:07:49;;;;;;;3.65;1.30;;;;;;;;;;5029913;28;20049;-85
2022/09/21 09:10:19;;;;;;;2.20;1.35;;;;;;;;;;5025292;28;20049;-85
2022/09/21 09:13:03;;;;;;;2.67;1.55;;;;;;;;;;5027584;28;20050;-84
2022/09/21 09:15:37;;;;;;;4.07;1.50;;;;;;;;;;5023823;28;20060;-84
2022/09/21 09:18:18;;;;;;;3.70;1.73;;;;;;;;;;5029464;28;20408;-84
2022/09/21 09:20:49;;;;;;;2.70;1.63;;;;;;;;;;5030625;28;20083;-84
2022/09/21 09:23:21;;;;;;;3.88;1.42;;;;;;;;;;5022958;28;20405;-86
2022/09/21 09:25:50;;;;;;;5.57;1.42;;;;;;;;;;5023666;28;20052;-83
2022/09/21 09:28:32;;;;;;;4.47;1.70;;;;;;;;;;5044787;28;20513;-83
2022/09/21 09:31:02;;;;;;;2.88;1.63;;;;;;;;;;5034796;28;20501;-84
2022/09/21 09:33:31;;;;;;;1.98;1.30;;;;;;;;;;5033863;28;20041;-83
2022/09/21 09:36:05;;;;;;;3.72;1.55;;;;;;;;;;5021421;28;20046;-83
2022/09/21 09:38:37;;;;;;;2.45;1.45;;;;;;;;;;5027929;28;20080;-83
2022/09/21 09:41:04;;;;;;;1.83;1.25;;;;;;;;;;5027584;28;20099;-83
2022/09/21 09:43:49;;;;;;;3.85;1.40;;;;;;;;;;5023014;28;20053;-83
2022/09/21 09:46:28;;;;;;;2.60;1.52;;;;;;;;;;5031758;28;20041;-83
2022/09/21 09:49:03;;;;;;;4.43;1.75;;;;;;;;;;5032120;28;20048;-84
2022/09/21 09:51:29;;;;;;;2.03;1.23;;;;;;;;;;5029422;28;20440;-83
2022/09/21 09:53:59;;;;;;;3.15;1.50;;;;;;;;;;5031180;28;20128;-84
2022/09/21 09:56:25;;;;;;;2.50;1.27;;;;;;;;;;5018827;28;20054;-83
2022/09/21 09:59:06;;;;;;;2.50;1.40;;;;;;;;;;5027943;28;20413;-84
2022/09/21 10:01:37;;;;;;;5.63;1.50;;;;;;;;;;5030272;28;20104;-83
2022/09/21 10:04:08;;;;;;;4.82;1.65;;;;;;;;;;5029103;28;20488;-84
2022/09/21 10:06:34;;;;;;;2.88;1.40;;;;;;;;;;5028870;28;20049;-83
2022/09/21 10:09:00;;;;;;;4.32;1.35;;;;;;;;;;5019144;28;20054;-84
2022/09/21 10:11:37;;;;;;;2.17;1.55;;;;;;;;;;5028204;28;20100;-83
2022/09/21 10:14:07;;;;;;;5.30;2.10;;;;;;;;;;5030287;28;20041;-84
2022/09/21 10:16:39;;;;;;;5.25;1.67;;;;;;;;;;5026033;28;20049;-83
2022/09/21 10:19:05;;;;;;;4.32;1.85;;;;;;;;;;5026349;28;20076;-83
2022/09/21 10:21:36;;;;;;;6.32;1.52;;;;;;;;;;5030681;28;20049;-84
2022/09/21 10:24:04;;;;;;;3.10;1.48;;;;;;;;;;5027773;28;20045;-83
2022/09/21 10:26:40;;;;;;;3.47;1.60;;;;;;;;;;5018656;28;20045;-84
2022/09/21 10:29:21;;;;;;;2.50;1.30;;;;;;;;;;5011714;28;20038;-84
2022/09/21 10:31:55;;;;;;;3.78;1.38;;;;;;;;;;5023512;28;20049;-84
2022/09/21 10:34:22;;;;;;;3.17;1.38;;;;;;;;;;5029443;28;20571;-81
2022/09/21 10:36:53;;;;;;;2.80;1.20;;;;;;;;;;5028761;28;20052;-81
2022/09/21 10:39:32;;;;;;;3.80;1.30;;;;;;;;;;5024696;28;20052;-82
2022/09/21 10:42:05;;;;;;;3.78;1.38;;;;;;;;;;5023298;28;20038;-82
2022/09/21 10:44:48;;;;;;;3.20;1.42;;;;;;;;;;5029113;28;20141;-83
2022/09/21 10:47:19;;;;;;;2.78;1.42;;;;;;;;;;5024433;28;20049;-83
2022/09/21 10:49:49;;;;;;;4.53;1.95;;;;;;;;;;5028590;28;20041;-83
2022/09/21 10:52:15;;;;;;;2.10;1.35;;;;;;;;;;5019386;28;20103;-83
2022/09/21 10:54:42;;;;;;;4.03;1.50;;;;;;;;;;5026876;28;20046;-82
2022/09/21 10:57:10;;;;;;;2.53;1.40;;;;;;;;;;5030437;28;20096;-82
2022/09/21 10:59:36;;;;;;;2.67;1.50;;;;;;;;;;5012702;28;20133;-83
2022/09/21 11:02:22;;;;;;;2.22;1.40;;;;;;;;;;5029726;28;20128;-87
2022/09/21 11:04:50;;;;;;;6.88;1.35;;;;;;;;;;5027555;28;20060;-84
2022/09/21 11:07:20;;;;;;;3.25;1.25;;;;;;;;;;5029586;28;20049;-83
2022/09/21 11:10:13;;;;;;;4.72;1.60;;;;;;;;;;5038600;28;20058;-85
2022/09/21 11:12:48;;;;;;;6.43;1.60;;;;;;;;;;5018805;28;20115;-86
2022/09/21 11:15:17;;;;;;;2.97;1.30;;;;;;;;;;5030614;28;20516;-85
2022/09/21 11:17:58;;;;;;;3.70;1.30;;;;;;;;;;5029527;28;20394;-85
2022/09/21 11:20:30;;;;;;;2.28;1.40;;;;;;;;;;5020550;28;20075;-85
2022/09/21 11:23:11;;;;;;;3.08;1.38;;;;;;;;;;5025258;28;20121;-85
2022/09/21 11:25:49;;;;;;;4.25;1.50;;;;;;;;;;5023312;28;20485;-85
2022/09/21 11:28:15;;;;;;;4.70;1.50;;;;;;;;;;5028535;28;20507;-85
2022/09/21 11:30:49;;;;;;;3.33;1.33;;;;;;;;;;5022973;28;20120;-84
2022/09/21 11:33:27;;;;;;;4.25;1.50;;;;;;;;;;5028927;28;20053;-85
2022/09/21 11:35:57;;;;;;;3.40;1.40;;;;;;;;;;5028356;28;20095;-85
2022/09/21 11:38:30;;;;;;;3.25;1.38;;;;;;;;;;5018676;28;20057;-84
2022/09/21 11:40:56;;;;;;;2.65;1.50;;;;;;;;;;5019975;28;20379;-83
2022/09/21 11:43:25;;;;;;;6.05;1.67;;;;;;;;;;5023179;28;20132;-83
2022/09/21 11:45:57;;;;;;;4.75;1.52;;;;;;;;;;5031549;28;20115;-83
2022/09/21 11:48:30;;;;;;;3.92;1.83;;;;;;;;;;5023778;28;20085;-84
2022/09/21 11:51:23;;;;;;;3.10;1.42;;;;;;;;;;5020039;28;20033;-84
2022/09/21 11:53:58;;;;;;;4.60;1.38;;;;;;;;;;5032404;28;20049;-84
2022/09/21 11:56:30;;;;;;;3.30;1.40;;;;;;;;;;5030673;28;20530;-84
2022/09/21 11:59:09;;;;;;;4.95;1.55;;;;;;;;;;5027928;28;20050;-85
2022/09/21 12:01:35;;;;;;;3.10;1.50;;;;;;;;;;5032827;28;20044;-83
2022/09/21 12:04:02;;;;;;;4.05;1.85;;;;;;;;;;5032163;28;20041;-89
2022/09/21 12:06:31;;;;;;;4.72;1.38;;;;;;;;;;5029215;28;20099;-85
2022/09/21 12:09:16;;;;;;;8.60;1.60;;;;;;;;;;5032362;28;20052;-84
2022/09/21 12:11:47;;;;;;;4.70;1.42;;;;;;;;;;5025221;28;20076;-84
2022/09/21 12:14:33;;;;;;;3.15;1.50;;;;;;;;;;5033849;28;20386;-84
2022/09/21 12:17:14;;;;;;;3.60;1.40;;;;;;;;;;5031920;28;20057;-84
2022/09/21 12:19:47;;;;;;;4.00;1.58;;;;;;;;;;5031098;28;20041;-83
2022/09/21 12:22:26;;;;;;;4.10;1.50;;;;;;;;;;5036471;28;20514;-84
2022/09/21 12:24:54;;;;;;;1.85;1.40;;;;;;;;;;5028225;28;20052;-83
2022/09/21 12:27:28;;;;;;;2.67;1.30;;;;;;;;;;5028086;28;20049;-84
2022/09/21 12:30:00;;;;;;;4.07;1.40;;;;;;;;;;5022770;28;20108;-87
2022/09/21 12:32:48;;;;;;;2.73;1.30;;;;;;;;;;5030391;28;20106;-84
2022/09/21 12:35:16;;;;;;;11.07;1.83;;;;;;;;;;5037306;28;20053;-84
2022/09/21 12:37:46;;;;;;;6.97;1.58;;;;;;;;;;5027237;28;20189;-85
2022/09/21 12:40:23;;;;;;;2.65;1.35;;;;;;;;;;5032869;28;20059;-85
2022/09/21 12:42:54;;;;;;;4.90;1.85;;;;;;;;;;5023686;28;20100;-86
2022/09/21 12:45:28;;;;;;;4.78;1.45;;;;;;;;;;5029826;28;20136;-83
2022/09/21 12:48:12;;;;;;;3.03;1.60;;;;;;;;;;5026340;28;20052;-85
2022/09/21 12:50:43;;;;;;;5.03;1.50;;;;;;;;;;5035689;28;20038;-82
2022/09/21 12:53:15;;;;;;;2.22;1.42;;;;;;;;;;5026003;28;20042;-83
2022/09/21 12:56:00;;;;;;;4.78;1.63;;;;;;;;;;5031690;28;20081;-83
2022/09/21 12:58:45;;;;;;;2.47;1.33;;;;;;;;;;5033404;28;20049;-85
2022/09/21 13:01:25;;;;;;;3.58;1.40;;;;;;;;;;5033518;28;20045;-84
2022/09/21 13:03:54;;;;;;;4.75;1.30;;;;;;;;;;5019980;28;20046;-86
2022/09/21 13:06:38;;;;;;;4.22;1.30;;;;;;;;;;5028967;28;20567;-84
2022/09/21 13:09:05;;;;;;;5.03;1.30;;;;;;;;;;5030297;28;20077;-83
2022/09/21 13:11:32;;;;;;;1.98;1.40;;;;;;;;;;5032634;28;20057;-84
2022/09/21 13:14:00;;;;;;;3.63;1.40;;;;;;;;;;5009748;28;20042;-84
2022/09/21 13:16:28;;;;;;;3.63;1.65;;;;;;;;;;5025629;28;20127;-83
2022/09/21 13:19:13;;;;;;;4.60;1.60;;;;;;;;;;5027332;28;20038;-86
2022/09/21 13:21:39;;;;;;;5.20;1.60;;;;;;;;;;5031372;28;20080;-85
2022/09/21 13:24:07;;;;;;;2.78;1.50;;;;;;;;;;5013583;28;20037;-83
2022/09/21 13:26:43;;;;;;;3.40;1.58;;;;;;;;;;5026423;28;20557;-84
2022/09/21 13:29:19;;;;;;;2.53;1.20;;;;;;;;;;5021731;28;20175;-84
2022/09/21 13:32:08;;;;;;;4.10;1.80;;;;;;;;;;5030302;28;20397;-85
2022/09/21 13:34:35;;;;;;;2.95;1.65;;;;;;;;;;5010671;28;20054;-84
2022/09/21 13:37:19;;;;;;;2.05;1.50;;;;;;;;;;5024614;28;20176;-85
2022/09/21 13:40:01;;;;;;;3.05;1.40;;;;;;;;;;5020573;28;20428;-84
2022/09/21 13:42:30;;;;;;;7.13;1.80;;;;;;;;;;5030906;28;20037;-85
2022/09/21 13:44:59;;;;;;;2.05;1.60;;;;;;;;;;5029596;28;20041;-86
2022/09/21 13:47:28;;;;;;;3.55;1.50;;;;;;;;;;5030662;28;20396;-84
2022/09/21 13:49:54;;;;;;;3.65;1.52;;;;;;;;;;5030086;28;20069;-84
2022/09/21 13:52:43;;;;;;;4.68;1.58;;;;;;;;;;5024126;28;20050;-84
2022/09/21 13:55:27;;;;;;;3.85;1.40;;;;;;;;;;5025002;28;20049;-83
2022/09/21 13:57:54;;;;;;;6.18;1.80;;;;;;;;;;5028399;28;20049;-83
2022/09/21 14:00:39;;;;;;;3.53;1.50;;;;;;;;;;5024300;28;20241;-84
2022/09/21 14:03:25;;;;;;;1.85;1.30;;;;;;;;;;5032040;28;20129;-85
2022/09/21 14:05:53;;;;;;;2.60;1.30;;;;;;;;;;5029151;28;20057;-83
2022/09/21 14:08:29;;;;;;;2.10;1.20;;;;;;;;;;5022107;28;20057;-83
2022/09/21 14:10:57;;;;;;;3.38;1.20;;;;;;;;;;5027391;28;20049;-83
2022/09/21 14:13:27;;;;;;;4.60;1.40;;;;;;;;;;5026698;28;20034;-84
2022/09/21 14:15:53;;;;;;;2.42;1.45;;;;;;;;;;5017796;28;20037;-84
2022/09/21 14:18:21;;;;;;;3.03;1.20;;;;;;;;;;5031209;28;20041;-83
2022/09/21 14:21:09;;;;;;;1.83;1.13;;;;;;;;;;5024754;28;20049;-84
2022/09/21 14:23:36;;;;;;;5.47;1.40;;;;;;;;;;5026234;28;20099;-84
2022/09/21 14:26:18;;;;;;;2.67;1.27;;;;;;;;;;5030214;28;20133;-84
2022/09/21 14:28:46;;;;;;;3.17;1.17;;;;;;;;;;5027372;28;20046;-84
2022/09/21 14:31:18;;;;;;;2.90;1.35;;;;;;;;;;5029893;28;20116;-84
2022/09/21 14:33:46;;;;;;;3.75;1.20;;;;;;;;;;5029371;28;20041;-82
2022/09/21 14:36:15;;;;;;;4.47;1.40;;;;;;;;;;5032108;28;20052;-83
2022/09/21 14:38:47;;;;;;;2.38;1.20;;;;;;;;;;5014114;28;20084;-83
2022/09/21 14:41:15;;;;;;;2.40;1.30;;;;;;;;;;5030122;28;20049;-83
2022/09/21 14:43:43;;;;;;;3.20;1.02;;;;;;;;;;5023687;28;20095;-85
2022/09/21 14:46:21;;;;;;;1.77;1.10;;;;;;;;;;5021831;28;20072;-86
2022/09/21 14:49:06;;;;;;;3.45;1.30;;;;;;;;;;5029204;28;20081;-87
2022/09/21 14:51:39;;;;;;;3.83;1.23;;;;;;;;;;5031263;28;20049;-85
2022/09/21 14:54:12;;;;;;;2.33;1.17;;;;;;;;;;5030345;28;20441;-85
2022/09/21 14:56:38;;;;;;;2.58;1.10;;;;;;;;;;5022652;28;20046;-86
2022/09/21 14:59:11;;;;;;;2.50;1.20;;;;;;;;;;5028798;28;20562;-85
2022/09/21 15:01:41;;;;;;;3.75;1.10;;;;;;;;;;5030349;28;20060;-85
2022/09/21 15:04:06;;;;;;;2.45;1.00;;;;;;;;;;5029710;28;20052;-83
2022/09/21 15:12:19;;;;;;;3.10;1.15;;;;;;;;;;5026921;28;20444;-82